Limassol, Cyprus
Current Conditions -  °F | °C
As of 1:50 AM on Thursday 23 Oct 2014 (Local Time) from LCRA Reporting Station
Broken Clouds Broken Clouds  
Wind Chill: 70°   Ceiling: 4200
Heat Index: 70°   Visibility: NA
Dew Point: 57°   Wind: 8mph
Humidity: 64%   Direction: 60°ENE
Pressure: 29.94"   Gusts: NA
Location:  34.76°N, 32.95°E
Report Text: LCRA 222250Z AUTO 06007KT //// // BKN042/// BKN170/// 21/14 Q1014
Loading
Personal Weather Stations






























Interactive Weather Map New forecast layout! Learn more

10-Day Weather Forecast

Advertisements
Track Severe Weather on mobile